Date,TemperatureHighF,TemperatureAvgF,TemperatureLowF,DewpointHighF,DewpointAvgF,DewpointLowF,HumidityHigh,HumidityAvg,HumidityLow,PressureMaxIn,PressureMinIn,WindSpeedMaxMPH,WindSpeedAvgMPH,GustSpeedMaxMPH,PrecipitationSumIn
2012-3-28,76.0,73.0,71.0,68.0,64.7,62.0,91,76,65,0.00,40.00,10,6,16,0.00
2012-3-29,80.0,72.4,68.0,70.0,66.7,63.0,97,83,60,0.00,40.00,12,7,18,0.01
2012-3-30,79.0,71.1,65.0,71.0,67.1,64.0,97,87,76,0.00,40.00,12,7,18,0.27
2012-3-31,81.0,73.8,68.0,71.0,69.2,68.0,99,86,67,0.00,40.00,10,6,16,0.01
2012-4-1,82.0,75.4,70.0,72.0,70.2,68.0,97,85,69,0.00,40.00,11,7,17,0.00
2012-4-2,77.0,72.4,64.0,73.0,69.4,61.0,96,90,81,0.00,40.00,14,7,24,0.54
2012-4-3,83.0,76.5,70.0,74.0,69.5,66.0,95,80,59,0.00,40.00,14,10,22,0.02
2012-4-4,81.0,73.0,64.0,74.0,68.1,63.0,98,85,65,0.00,40.00,11,8,18,0.30
2012-4-5,83.0,75.6,70.0,72.0,69.3,64.0,100,82,57,0.00,40.00,13,6,17,0.01
2012-4-6,81.0,72.5,62.0,64.0,58.6,52.0,92,65,37,0.00,40.00,6,4,12,0.00
2012-4-7,82.0,72.2,61.0,67.0,60.8,57.0,91,69,43,0.00,40.00,9,5,13,0.00
2012-4-8,83.0,73.2,64.0,68.0,64.9,60.0,99,78,46,0.00,40.00,7,4,11,0.00
2012-4-9,83.0,73.9,66.0,68.0,63.9,58.0,96,74,44,0.00,40.00,7,4,11,0.00
2012-4-10,83.0,74.3,67.0,68.0,65.6,62.0,95,76,51,0.00,40.00,9,4,14,0.00
2012-4-11,86.0,74.9,68.0,70.0,65.0,59.0,97,74,42,0.00,40.00,8,4,15,0.00
2012-4-12,77.0,72.0,68.0,69.0,65.4,61.0,97,81,63,0.00,40.00,11,7,17,0.00
2012-4-13,82.0,74.9,69.0,69.0,67.5,64.0,95,79,61,0.00,40.00,15,8,23,0.00
2012-4-14,81.0,76.1,72.0,69.0,67.3,65.0,88,75,59,0.00,40.00,17,12,26,0.00
2012-4-15,82.0,77.1,73.0,72.0,69.7,66.0,87,78,71,0.00,40.00,20,15,32,0.00
2012-4-16,78.0,73.1,67.0,72.0,68.1,64.0,94,85,70,0.00,40.00,20,9,28,0.36
2012-4-17,73.0,67.3,58.0,67.0,62.3,56.0,98,85,59,0.00,40.00,13,8,22,0.31
2012-4-18,78.0,65.6,54.0,58.0,55.3,53.0,97,73,43,0.00,40.00,10,6,16,0.00
2012-4-19,78.0,68.4,57.0,62.0,58.9,56.0,97,74,49,0.00,40.00,9,4,15,0.00
2012-4-20,80.0,71.1,64.0,64.0,61.1,56.0,92,72,52,0.00,40.00,13,6,30,0.00
2012-4-21,66.0,60.2,56.0,62.0,55.2,53.0,95,84,66,0.00,40.00,20,13,35,0.74
2012-4-22,82.0,66.3,52.0,59.0,52.3,50.0,95,65,33,0.00,40.00,12,6,20,0.03
2012-4-23,74.0,63.5,52.0,53.0,45.4,40.0,88,54,34,0.00,40.00,12,7,18,0.00
2012-4-24,76.0,65.0,54.0,60.0,53.4,43.0,98,70,32,0.00,40.00,10,5,17,0.00
2012-4-25,80.0,71.9,65.0,68.0,64.9,61.0,89,79,64,0.00,40.00,15,10,24,0.00
2012-4-26,80.0,74.1,70.0,69.0,67.1,66.0,90,80,67,0.00,40.00,16,12,23,0.00
2012-4-27,81.0,74.7,71.0,69.0,67.1,65.0,87,77,65,0.00,40.00,17,12,26,0.00
2012-4-28,82.0,75.6,71.0,69.0,66.5,62.0,90,74,52,0.00,40.00,13,10,21,0.00
2012-4-29,83.0,76.6,70.0,72.0,69.8,68.0,96,81,61,0.00,40.00,12,8,20,0.00
2012-4-30,85.0,77.3,72.0,73.0,70.3,65.0,94,80,51,0.00,40.00,12,8,18,0.00
2012-5-1,86.0,77.2,69.0,73.0,69.9,66.0,98,80,52,0.00,40.00,12,7,20,0.00
2012-5-2,86.0,78.9,73.0,75.0,72.5,70.0,95,82,65,0.00,40.00,9,6,14,0.00
2012-5-3,87.0,79.2,73.0,74.0,71.6,69.0,96,79,59,0.00,40.00,9,5,14,0.00
2012-5-4,87.0,79.0,72.0,75.0,71.3,69.0,98,79,55,0.00,40.00,10,6,17,0.00
2012-5-5,86.0,79.4,73.0,73.0,71.6,70.0,96,79,60,0.00,40.00,11,7,19,0.00
2012-5-6,88.0,79.5,73.0,75.0,72.0,70.0,95,79,59,0.00,40.00,11,6,16,0.00
2012-5-7,86.0,79.2,73.0,73.0,70.0,66.0,96,75,52,0.00,40.00,10,5,15,0.00
2012-5-8,86.0,74.7,70.0,72.0,69.5,67.0,96,85,55,0.00,40.00,12,5,21,0.26
2012-5-9,83.0,74.7,69.0,70.0,67.4,64.0,96,80,52,0.00,40.00,9,6,18,0.05
2012-5-10,83.0,75.0,65.0,66.0,60.9,53.0,90,64,39,0.00,40.00,10,5,14,0.00
2012-5-11,76.0,71.7,67.0,69.0,67.1,65.0,96,86,74,0.00,40.00,14,9,22,1.19
2012-5-12,78.0,71.9,67.0,70.0,67.6,64.0,97,87,64,0.00,40.00,11,6,18,0.51
2012-5-13,79.0,71.2,65.0,66.0,63.4,60.0,97,78,54,0.00,40.00,9,6,16,0.05
2012-5-14,84.0,74.5,63.0,69.0,61.5,55.0,95,68,39,0.00,40.00,7,4,12,0.00
2012-5-15,84.0,74.2,66.0,66.0,62.3,58.0,92,70,41,0.00,40.00,10,5,15,0.00
2012-5-16,87.0,73.8,66.0,68.0,63.6,59.0,91,73,41,0.00,40.00,12,6,31,0.59
2012-5-17,88.0,76.6,67.0,69.0,64.4,56.0,97,71,34,0.00,40.00,8,4,12,0.59
2012-5-18,87.0,77.4,68.0,72.0,65.8,59.0,98,72,39,0.00,40.00,7,4,12,0.00
2012-5-19,87.0,78.7,70.0,73.0,67.1,60.0,97,71,40,0.00,40.00,9,4,17,0.00
2012-5-20,90.0,78.8,70.0,73.0,68.1,63.0,96,73,41,0.00,40.00,8,4,13,0.00
2012-5-21,92.0,80.9,71.0,73.0,68.7,64.0,95,70,41,0.00,40.00,7,5,14,0.00
2012-5-22,90.0,79.2,72.0,75.0,69.9,62.0,94,75,47,0.00,40.00,13,5,36,1.22
2012-5-23,85.0,78.8,74.0,74.0,70.6,67.0,95,77,58,0.00,40.00,12,7,21,0.94
2012-5-24,84.0,79.4,76.0,72.0,69.6,67.0,84,73,62,0.00,40.00,15,11,25,0.00
2012-5-25,86.0,80.6,75.0,73.0,71.7,71.0,87,75,62,0.00,40.00,11,8,21,0.00
2012-5-26,88.0,79.8,73.0,74.0,72.3,70.0,94,79,58,0.00,40.00,10,5,16,0.00
2012-5-27,91.0,80.8,72.0,76.0,71.1,59.0,97,76,35,0.00,40.00,7,4,12,0.00
2012-5-28,90.0,79.9,73.0,77.0,70.6,65.0,97,76,46,0.00,40.00,7,4,12,0.00
2012-5-29,89.0,80.1,72.0,76.0,72.0,70.0,93,78,56,0.00,40.00,12,7,18,0.00
2012-5-30,90.0,80.9,75.0,77.0,73.5,71.0,95,80,57,0.00,40.00,10,6,16,0.00
2012-5-31,87.0,78.9,71.0,77.0,72.7,65.0,93,82,60,0.00,40.00,12,6,26,0.05
2012-6-1,89.0,78.5,70.0,73.0,63.3,55.0,95,64,33,0.00,40.00,11,5,16,0.05
2012-6-2,87.0,78.6,69.0,72.0,67.3,62.0,87,69,53,0.00,40.00,10,6,16,0.00
2012-6-3,89.0,80.1,73.0,76.0,72.4,70.0,94,79,61,0.00,40.00,12,6,20,0.00
2012-6-4,92.0,82.7,75.0,76.0,73.1,71.0,90,74,52,0.00,40.00,12,7,17,0.00
2012-6-5,96.0,83.3,76.0,77.0,72.6,68.0,96,74,41,0.00,40.00,10,5,15,0.00
2012-6-6,94.0,81.8,74.0,77.0,72.2,64.0,95,75,47,0.00,40.00,11,4,30,0.00
2012-6-7,93.0,78.7,71.0,73.0,70.4,67.0,95,78,47,0.00,40.00,12,5,31,1.45
2012-6-8,92.0,78.8,71.0,74.0,71.3,66.0,97,80,48,0.00,40.00,10,5,18,1.45
2012-6-9,88.0,78.3,72.0,74.0,71.7,70.0,95,82,57,0.00,40.00,7,4,20,0.11
2012-6-10,91.0,82.2,73.0,77.0,73.8,71.0,97,78,53,0.00,40.00,11,6,18,0.00
2012-6-11,89.0,84.0,78.0,79.0,76.8,75.0,92,80,65,0.00,40.00,14,8,22,0.00
2012-6-12,87.0,81.1,74.0,78.0,73.9,70.0,91,80,61,0.00,40.00,11,6,27,0.07
2012-6-13,90.0,81.6,74.0,75.0,72.3,67.0,92,75,56,0.00,40.00,9,5,15,0.01
2012-6-14,85.0,78.6,73.0,77.0,71.9,69.0,92,81,65,0.00,40.00,10,5,18,0.19
2012-6-15,88.0,79.0,73.0,75.0,73.4,71.0,93,83,62,0.00,40.00,9,5,16,0.32
2012-6-16,89.0,79.7,72.0,74.0,71.8,68.0,95,79,51,0.00,40.00,11,6,28,0.03
2012-6-17,90.0,78.8,69.0,74.0,70.0,67.0,94,76,51,0.00,40.00,11,5,17,0.03
2012-6-18,84.0,77.4,74.0,76.0,73.2,71.0,95,87,77,0.00,40.00,8,5,16,1.07
2012-6-19,88.0,81.2,76.0,76.0,72.7,69.0,93,77,58,0.00,40.00,14,8,24,0.31
2012-6-20,88.0,82.7,76.0,74.0,68.7,61.0,90,65,41,0.00,40.00,11,6,18,0.00
2012-6-21,90.0,81.1,72.0,74.0,71.1,68.0,95,74,51,0.00,40.00,7,4,13,0.00
2012-6-22,92.0,82.3,73.0,73.0,69.3,65.0,89,68,43,0.00,40.00,7,4,14,0.00
2012-6-23,95.0,84.3,74.0,77.0,72.4,70.0,92,70,45,0.00,40.00,7,4,15,0.00
2012-6-24,98.0,86.5,77.0,78.0,74.1,68.0,96,71,38,0.00,40.00,8,4,17,0.00
2012-6-25,98.0,85.8,75.0,75.0,70.1,65.0,85,62,36,0.00,40.00,8,5,15,0.00
2012-6-26,100.0,87.9,76.0,75.0,70.7,67.0,85,60,35,0.00,40.00,7,4,13,0.00
2012-6-27,97.0,84.6,71.0,78.0,69.9,63.0,89,64,40,0.00,40.00,10,5,16,0.00
2012-6-28,93.0,85.0,79.0,80.0,76.5,73.0,94,78,54,0.00,40.00,9,6,15,0.00
2012-6-29,94.0,83.9,78.0,79.0,73.6,68.0,94,74,45,0.00,40.00,10,4,16,0.00
2012-6-30,91.0,82.9,76.0,77.0,74.5,72.0,91,77,57,0.00,40.00,12,6,20,0.02
2012-7-1,92.0,83.5,77.0,78.0,73.6,69.0,93,74,48,0.00,40.00,11,5,16,0.02
2012-7-2,93.0,83.1,74.0,78.0,72.7,69.0,95,74,51,0.00,40.00,9,4,15,0.00
2012-7-3,94.0,83.1,76.0,78.0,73.2,70.0,93,74,50,0.00,40.00,8,4,14,0.00
2012-7-4,93.0,83.5,76.0,79.0,73.3,69.0,93,74,46,0.00,40.00,10,4,16,0.00
2012-7-5,93.0,83.0,77.0,77.0,72.9,69.0,93,73,47,0.00,40.00,7,4,16,0.00
2012-7-6,94.0,83.4,76.0,78.0,73.0,69.0,92,73,48,0.00,40.00,11,5,19,0.00
2012-7-7,89.0,81.1,75.0,77.0,73.3,70.0,94,79,55,0.00,40.00,9,4,14,0.11
2012-7-8,87.0,80.5,76.0,75.0,72.7,70.0,90,78,59,0.00,40.00,10,4,15,0.03
2012-7-9,80.0,76.5,72.0,76.0,73.1,69.0,96,89,82,0.00,40.00,14,5,21,2.18
2012-7-10,83.0,76.1,73.0,75.0,73.1,71.0,96,91,73,0.00,40.00,14,6,25,1.95
2012-7-11,81.0,77.1,73.0,75.0,73.4,71.0,97,89,78,0.00,40.00,12,5,22,2.86
2012-7-12,82.0,77.0,73.0,78.0,73.8,71.0,94,90,82,0.00,40.00,8,5,19,0.13
2012-7-13,80.0,75.3,71.0,74.0,71.8,69.0,95,89,73,0.00,40.00,7,4,15,0.78
2012-7-14,89.0,80.1,73.0,78.0,73.4,72.0,97,82,60,0.00,40.00,9,4,13,0.04
2012-7-15,89.0,82.2,77.0,77.0,75.0,73.0,94,80,62,0.00,40.00,8,4,14,0.33
2012-7-16,90.0,83.0,78.0,78.0,74.8,72.0,91,78,58,0.00,40.00,7,4,17,0.08
2012-7-17,90.0,84.3,78.0,79.0,75.8,73.0,93,77,60,0.00,40.00,8,4,14,0.08
2012-7-18,92.0,84.6,79.0,80.0,76.2,74.0,94,78,58,0.00,40.00,8,4,16,0.00
2012-7-19,89.0,84.6,79.0,80.0,76.9,75.0,93,78,67,0.00,40.00,10,6,16,0.00
2012-7-20,94.0,85.2,74.0,79.0,76.5,71.0,93,77,55,0.00,40.00,11,8,25,0.69
2012-7-21,89.0,78.9,72.0,78.0,74.5,70.0,94,87,69,0.00,40.00,12,6,29,2.79
2012-7-22,86.0,79.3,76.0,76.0,74.6,70.0,94,86,64,0.00,40.00,8,5,17,0.19
2012-7-23,89.0,81.9,76.0,78.0,74.8,70.0,94,81,59,0.00,40.00,8,4,15,0.31
2012-7-24,90.0,83.9,78.0,79.0,76.1,74.0,94,79,61,0.00,40.00,7,4,13,0.02
2012-7-25,90.0,84.2,80.0,78.0,76.2,74.0,90,78,63,0.00,40.00,11,6,17,0.00
2012-7-26,89.0,83.1,79.0,79.0,76.2,74.0,87,80,66,0.00,40.00,9,6,16,0.47
2012-7-27,91.0,84.9,80.0,79.0,76.1,72.0,92,77,56,0.00,40.00,8,5,13,0.46
2012-7-28,92.0,82.2,72.0,78.0,75.7,68.0,95,82,59,0.00,40.00,13,5,35,2.09
2012-7-29,93.0,83.2,76.0,79.0,76.5,74.0,96,82,61,0.00,40.00,9,5,16,0.40
2012-7-30,94.0,85.3,80.0,79.0,76.4,74.0,92,76,53,0.00,40.00,10,5,15,0.00
2012-7-31,93.0,85.5,81.0,78.0,76.5,73.0,89,76,53,0.00,40.00,11,6,17,0.00
2012-8-1,92.0,84.9,80.0,79.0,77.3,75.0,90,79,58,0.00,40.00,10,6,16,0.00
2012-8-2,93.0,87.3,81.0,79.0,77.1,75.0,89,73,62,0.00,40.00,9,6,15,0.00
2012-8-3,92.0,85.6,81.0,78.0,75.9,71.0,90,74,52,0.00,40.00,8,6,15,0.00
2012-8-4,90.0,84.7,80.0,79.0,76.2,72.0,88,76,61,0.00,40.00,8,4,17,0.00
2012-8-5,94.0,84.5,78.0,79.0,76.4,74.0,93,78,52,0.00,40.00,11,4,22,0.00
2012-8-6,92.0,82.8,79.0,78.0,75.9,70.0,92,81,58,0.00,40.00,9,4,13,0.00
2012-8-7,94.0,83.7,76.0,78.0,74.8,72.0,94,77,50,0.00,40.00,7,4,12,0.00
2012-8-8,92.0,83.7,79.0,79.0,76.3,70.0,93,79,60,0.00,40.00,11,4,19,0.00
2012-8-9,91.0,84.2,79.0,79.0,76.3,74.0,91,78,59,0.00,40.00,12,6,18,0.00
2012-8-10,91.0,84.9,79.0,79.0,77.0,75.0,93,78,60,0.00,40.00,14,8,25,0.00
2012-8-11,92.0,84.5,75.0,80.0,76.8,71.0,89,79,61,0.00,40.00,16,5,24,0.05
2012-8-12,92.0,85.0,80.0,80.0,76.9,73.0,92,78,59,0.00,40.00,10,4,30,0.17
2012-8-13,92.0,85.2,80.0,80.0,77.2,75.0,90,78,60,0.00,40.00,12,6,19,0.05
2012-8-14,93.0,85.7,81.0,80.0,76.5,74.0,87,75,57,0.00,40.00,11,7,19,0.00
2012-8-15,93.0,84.7,79.0,79.0,76.1,74.0,89,77,56,0.00,40.00,8,5,16,0.00
2012-8-16,94.0,85.1,80.0,79.0,76.8,74.0,87,77,57,0.00,40.00,9,4,16,0.00
2012-8-17,93.0,84.7,80.0,80.0,76.3,70.0,91,77,57,0.00,40.00,8,4,14,0.07
2012-8-18,87.0,79.9,74.0,80.0,75.5,71.0,92,87,75,0.00,40.00,8,4,30,0.39
2012-8-19,83.0,77.8,72.0,76.0,73.2,70.0,94,86,72,0.00,40.00,9,4,24,1.11
2012-8-20,90.0,81.6,74.0,77.0,72.5,68.0,94,76,51,0.00,40.00,9,4,14,0.01
2012-8-21,88.0,79.7,71.0,73.0,71.5,69.0,93,77,58,0.00,40.00,7,4,12,0.00
2012-8-22,87.0,79.5,75.0,75.0,71.8,65.0,89,78,64,0.00,40.00,13,5,20,0.00
2012-8-23,86.0,78.1,74.0,76.0,73.0,68.0,94,85,68,0.00,40.00,11,6,22,0.48
2012-8-24,84.0,77.3,74.0,77.0,74.1,72.0,94,90,75,0.00,40.00,10,6,22,2.20
2012-8-25,84.0,77.2,74.0,76.0,73.4,71.0,95,88,76,0.00,40.00,9,5,22,0.31
2012-8-26,90.0,81.1,75.0,78.0,75.0,73.0,94,83,64,0.00,40.00,7,4,12,0.01
2012-8-27,92.0,82.6,75.0,78.0,74.2,72.0,94,78,54,0.00,40.00,9,4,15,0.00
2012-8-28,91.0,82.4,75.0,74.0,71.3,70.0,88,70,52,0.00,40.00,18,11,29,0.00
2012-8-29,88.0,82.1,79.0,73.0,71.3,70.0,75,70,61,0.00,40.00,25,18,39,0.38
2012-8-30,86.0,79.9,75.0,76.0,72.7,70.0,93,79,67,0.00,40.00,21,10,32,0.01
2012-8-31,90.0,84.7,81.0,81.0,78.2,76.0,94,82,66,0.00,40.00,13,10,21,0.26
2012-9-1,88.0,82.5,78.0,81.0,77.8,75.0,95,86,72,0.00,40.00,10,5,20,0.17
2012-9-2,90.0,83.3,79.0,82.0,78.8,77.0,96,87,73,0.00,40.00,9,6,14,0.14
2012-9-3,92.0,84.3,78.0,79.0,77.6,76.0,94,82,65,0.00,40.00,9,6,15,0.00
2012-9-4,92.0,83.5,78.0,79.0,76.5,73.0,95,81,56,0.00,40.00,10,6,16,0.00
2012-9-5,93.0,84.6,78.0,80.0,76.9,75.0,95,80,56,0.00,40.00,9,6,16,0.00
2012-9-6,95.0,85.6,78.0,81.0,77.2,71.0,98,79,50,0.00,40.00,7,5,16,0.00
2012-9-7,94.0,85.9,78.0,79.0,76.6,73.0,97,76,56,0.00,40.00,9,5,15,0.00
2012-9-8,91.0,83.4,74.0,79.0,76.2,68.0,93,80,61,0.00,40.00,13,7,18,0.00
2012-9-9,84.0,73.9,63.0,68.0,61.4,57.0,93,69,41,0.00,40.00,10,5,17,0.00
2012-9-10,87.0,75.2,62.0,67.0,60.8,55.0,92,65,34,0.00,40.00,8,4,14,0.00
2012-9-11,88.0,76.9,66.0,72.0,65.0,61.0,91,70,41,0.00,40.00,9,5,17,0.00
2012-9-12,85.0,77.5,72.0,75.0,72.3,69.0,94,84,67,0.00,40.00,11,5,18,0.23
2012-9-13,88.0,78.0,72.0,75.0,72.1,68.0,96,83,57,0.00,40.00,11,5,29,0.45
2012-9-14,90.0,79.0,71.0,75.0,70.9,69.0,96,79,52,0.00,40.00,9,4,13,0.01
2012-9-15,91.0,79.7,70.0,74.0,69.6,64.0,96,74,42,0.00,40.00,6,4,11,0.00
2012-9-16,90.0,79.3,71.0,74.0,70.1,65.0,95,76,44,0.00,40.00,7,3,16,0.00
2012-9-17,83.0,76.0,71.0,74.0,70.8,68.0,97,85,67,0.00,40.00,12,5,17,2.42
2012-9-18,85.0,75.4,69.0,70.0,68.4,66.0,95,80,55,0.00,40.00,10,6,20,0.01
2012-9-19,81.0,72.2,64.0,68.0,58.7,52.0,89,66,37,0.00,40.00,8,5,16,0.00
2012-9-20,84.0,70.8,58.0,61.0,56.8,52.0,94,65,34,0.00,40.00,6,3,10,0.00
2012-9-21,89.0,75.2,64.0,73.0,64.9,58.0,93,73,44,0.00,40.00,7,3,13,0.00
2012-9-22,91.0,79.1,70.0,76.0,71.2,66.0,98,80,47,0.00,40.00,5,3,10,0.00
2012-9-23,92.0,79.8,70.0,76.0,71.4,68.0,98,79,45,0.00,40.00,5,3,10,0.00
2012-9-24,91.0,79.9,72.0,75.0,72.5,68.0,96,80,49,0.00,40.00,8,3,14,0.00
2012-9-25,89.0,80.2,75.0,76.0,72.1,69.0,95,78,56,0.00,40.00,10,4,15,0.00
2012-9-26,88.0,78.7,71.0,73.0,70.2,67.0,94,77,51,0.00,40.00,8,4,14,0.00
2012-9-27,90.0,79.1,70.0,75.0,71.4,67.0,96,79,49,0.00,40.00,7,4,12,0.00
2012-9-28,89.0,78.5,73.0,77.0,73.8,68.0,97,86,67,0.00,40.00,9,3,15,0.13
2012-9-29,78.0,76.1,73.0,75.0,74.0,69.0,97,94,88,0.00,40.00,9,4,19,2.08
2012-9-30,83.0,75.3,66.0,77.0,71.3,58.0,97,88,67,0.00,40.00,16,9,27,2.18
2012-10-1,80.0,68.5,61.0,63.0,59.0,56.0,93,74,45,0.00,40.00,15,9,23,0.13
2012-10-2,83.0,71.2,61.0,66.0,59.6,55.0,95,71,38,0.00,40.00,5,2,10,0.00
2012-10-3,86.0,72.6,63.0,67.0,62.4,57.0,95,73,40,0.00,40.00,6,3,12,0.00
2012-10-4,85.0,75.9,69.0,74.0,69.2,66.0,96,81,57,0.00,40.00,9,4,14,0.00
2012-10-5,87.0,75.5,68.0,73.0,68.0,60.0,97,80,40,0.00,40.00,7,3,13,0.01
2012-10-6,87.0,74.0,62.0,74.0,67.5,57.0,98,82,50,0.00,40.00,10,4,18,0.01
2012-10-7,71.0,60.2,53.0,57.0,52.2,48.0,89,76,57,0.00,40.00,14,10,20,0.00
2012-10-8,70.0,60.0,53.0,53.0,50.2,47.0,87,72,51,0.00,40.00,11,6,17,0.00
2012-10-9,82.0,65.2,51.0,65.0,57.6,49.0,93,78,50,0.00,40.00,8,4,12,0.00
2012-10-10,88.0,75.4,67.0,73.0,68.0,64.0,95,80,47,0.00,40.00,9,4,14,0.00
2012-10-11,88.0,76.4,68.0,72.0,67.4,62.0,98,77,44,0.00,40.00,10,5,15,0.00
2012-10-12,85.0,75.4,67.0,74.0,69.6,66.0,97,84,55,0.00,40.00,8,4,14,0.01
2012-10-13,86.0,77.4,71.0,74.0,70.7,69.0,96,81,59,0.00,40.00,14,7,20,0.01
2012-10-14,86.0,77.9,74.0,75.0,71.8,70.0,95,83,60,0.00,40.00,10,5,17,0.00
2012-10-15,82.0,73.0,66.0,74.0,62.7,55.0,96,73,41,0.00,40.00,8,5,16,0.39
2012-10-16,81.0,69.2,59.0,70.0,62.3,55.0,93,80,59,0.00,40.00,10,4,20,0.16
2012-10-17,84.0,73.8,63.0,75.0,68.8,61.0,96,85,66,0.00,40.00,14,8,21,0.16
2012-10-18,81.0,73.9,64.0,76.0,59.4,44.0,97,65,29,0.00,40.00,13,6,26,0.71
2012-10-19,81.0,67.1,56.0,59.0,48.9,38.0,86,58,22,0.00,40.00,10,4,17,0.45
2012-10-20,83.0,68.4,56.0,62.0,55.3,47.0,93,69,28,0.00,40.00,10,4,17,0.00
2012-10-21,85.0,73.5,65.0,71.0,64.9,59.0,93,76,53,0.00,40.00,11,6,17,0.00
2012-10-22,84.0,73.5,67.0,70.0,67.0,65.0,97,81,56,0.00,40.00,11,6,16,0.00
2012-10-23,85.0,73.4,66.0,71.0,67.3,65.0,96,82,55,0.00,40.00,8,4,12,0.01
2012-10-24,83.0,74.3,68.0,72.0,68.5,66.0,98,84,57,0.00,40.00,11,5,17,0.01
2012-10-25,84.0,75.3,70.0,72.0,68.7,64.0,96,82,51,0.00,40.00,10,6,17,0.01
2012-10-26,78.0,67.4,54.0,75.0,64.6,47.0,98,91,82,0.00,40.00,17,7,24,0.00
2012-10-27,65.0,54.7,49.0,47.0,41.6,37.0,83,63,37,0.00,40.00,16,12,24,0.00
2012-10-28,67.0,52.6,42.0,40.0,37.0,31.0,85,60,28,0.00,40.00,12,7,21,0.00
2012-10-29,67.0,52.8,42.0,43.0,37.5,34.0,83,60,29,0.00,40.00,11,5,19,0.00
2012-10-30,71.0,56.1,42.0,53.0,43.7,37.0,91,67,30,0.00,40.00,8,3,13,0.00
2012-10-31,81.0,65.3,53.0,65.0,58.1,52.0,95,80,47,0.00,40.00,9,3,15,0.00
2012-11-1,85.0,69.7,58.0,71.0,63.7,57.0,97,84,45,0.00,40.00,9,3,13,0.00
2012-11-2,84.0,72.3,64.0,74.0,66.7,63.0,98,85,53,0.00,40.00,9,4,13,0.01
2012-11-3,85.0,72.3,63.0,74.0,65.8,61.0,98,82,53,0.00,40.00,12,4,17,0.02
2012-11-4,79.0,69.8,64.0,73.0,64.7,58.0,98,85,59,0.00,40.00,13,3,30,0.23
2012-11-5,78.0,67.6,62.0,69.0,64.3,55.0,99,90,71,0.00,40.00,9,5,38,0.83
2012-11-6,69.0,59.6,52.0,55.0,50.0,46.0,90,73,43,0.00,40.00,11,6,17,0.50
2012-11-7,76.0,61.5,51.0,52.0,46.8,40.0,96,64,27,0.00,40.00,10,4,18,0.01
2012-11-8,71.0,59.5,51.0,51.0,46.2,41.0,80,63,39,0.00,40.00,9,5,13,0.00
2012-11-9,76.0,64.0,55.0,61.0,56.7,50.0,91,78,57,0.00,40.00,9,6,15,0.00
2012-11-10,80.0,69.7,60.0,65.0,61.6,59.0,96,78,51,0.00,40.00,12,8,20,0.00
2012-11-11,72.0,70.2,67.0,70.0,67.3,63.0,96,91,79,0.00,40.00,12,7,24,0.86
2012-11-12,71.0,59.0,47.0,70.0,48.7,31.0,97,72,26,0.00,40.00,19,10,31,0.22
2012-11-13,59.0,48.7,39.0,41.0,34.6,30.0,80,61,35,0.00,40.00,12,7,21,0.01
2012-11-14,63.0,51.3,41.0,39.0,36.3,33.0,82,59,32,0.00,40.00,9,6,16,0.00
2012-11-15,65.0,50.5,38.0,42.0,36.4,33.0,88,62,31,0.00,40.00,7,4,14,0.00
2012-11-16,67.0,52.2,41.0,47.0,41.3,38.0,90,69,40,0.00,40.00,8,5,16,0.00
2012-11-17,70.0,54.1,40.0,44.0,39.5,36.0,87,62,29,0.00,40.00,7,4,13,0.00
2012-11-18,71.0,55.1,41.0,45.0,39.1,36.0,86,59,28,0.00,40.00,7,3,12,0.00
2012-11-19,71.0,56.8,45.0,52.0,46.4,41.0,94,71,39,0.00,40.00,6,2,10,0.00
2012-11-20,76.0,59.7,48.0,55.0,50.1,46.0,96,75,34,0.00,40.00,6,2,11,0.00
2012-11-21,78.0,62.8,52.0,63.0,53.4,48.0,97,75,42,0.00,40.00,9,3,15,0.00
2012-11-22,76.0,61.3,48.0,58.0,50.1,45.0,92,70,35,0.00,40.00,8,3,14,0.00
2012-11-23,78.0,65.0,58.0,62.0,58.6,48.0,95,81,53,0.00,40.00,12,5,19,0.00
2012-11-24,62.0,53.3,44.0,48.0,37.2,33.0,76,56,33,0.00,40.00,11,7,19,0.00
2012-11-25,70.0,56.4,42.0,58.0,48.3,38.0,91,76,52,0.00,40.00,8,5,14,0.00
2012-11-26,71.0,65.0,61.0,69.0,63.1,58.0,96,93,91,0.00,40.00,7,5,14,0.10
2012-11-27,67.0,58.1,47.0,66.0,54.6,43.0,97,88,76,0.00,40.00,12,7,22,0.39
2012-11-28,63.0,49.7,41.0,46.0,41.9,39.0,94,77,50,0.00,40.00,8,5,14,0.01
2012-11-29,67.0,53.7,42.0,53.0,45.5,38.0,94,75,54,0.00,40.00,7,3,11,0.00
2012-11-30,74.0,62.9,53.0,61.0,57.2,52.0,95,83,60,0.00,40.00,8,6,14,0.01
2012-12-1,79.0,67.2,61.0,67.0,62.0,59.0,97,84,61,0.00,40.00,11,6,15,0.01
2012-12-2,80.0,69.7,61.0,68.0,64.6,60.0,97,85,62,0.00,40.00,11,7,17,0.01
2012-12-3,76.0,69.2,64.0,68.0,65.6,62.0,95,88,67,0.00,40.00,15,7,23,0.74
2012-12-4,77.0,68.3,63.0,72.0,66.0,60.0,96,92,79,0.00,40.00,7,5,31,2.02
2012-12-5,72.0,63.6,58.0,61.0,59.2,55.0,97,87,67,0.00,40.00,10,6,16,0.02
2012-12-6,73.0,61.0,57.0,61.0,54.9,-99.9,95,85,60,0.00,40.00,5,3,10,0.00
2012-12-7,75.0,65.0,57.0,64.0,60.3,56.0,97,86,66,0.00,40.00,10,5,15,0.01
2012-12-8,78.0,68.0,63.0,68.0,64.3,61.0,95,88,65,0.00,40.00,12,6,18,0.01
2012-12-9,80.0,71.5,65.0,72.0,67.3,63.0,98,87,65,0.00,40.00,13,7,20,0.01
2012-12-10,72.0,54.0,43.0,69.0,44.8,35.0,93,72,57,0.00,40.00,14,9,21,0.14
2012-12-11,51.0,42.3,36.0,36.0,32.8,30.0,84,70,45,0.00,40.00,8,6,12,0.00
2012-12-12,58.0,45.8,36.0,38.0,32.7,26.0,88,64,30,0.00,40.00,8,4,18,0.00
2012-12-13,63.0,46.7,34.0,43.0,32.8,29.0,87,63,29,0.00,40.00,7,3,14,0.00
2012-12-14,65.0,54.0,44.0,56.0,47.2,33.0,92,78,66,0.00,40.00,10,5,15,0.00
2012-12-15,76.0,66.8,58.0,69.0,62.9,56.0,95,87,72,0.00,40.00,13,7,20,0.00
2012-12-16,77.0,67.1,62.0,70.0,64.6,59.0,95,91,72,0.00,40.00,12,7,22,1.61
2012-12-17,71.0,61.5,53.0,62.0,53.3,43.0,97,77,39,0.00,40.00,11,5,17,0.99
2012-12-18,74.0,61.0,49.0,59.0,51.9,43.0,92,74,49,0.00,40.00,13,6,18,0.00
2012-12-19,78.0,69.1,59.0,70.0,64.5,58.0,96,86,69,0.00,40.00,18,10,29,0.08
2012-12-20,72.0,55.8,40.0,71.0,39.9,22.0,96,58,36,0.00,40.00,23,14,34,0.10
2012-12-21,61.0,45.9,33.0,38.0,28.0,21.0,78,54,23,0.00,40.00,9,5,15,0.03
2012-12-22,64.0,51.5,39.0,48.0,39.3,25.0,92,68,23,0.00,40.00,10,4,15,0.00
2012-12-23,70.0,63.8,55.0,64.0,58.2,50.0,89,82,74,0.00,40.00,11,8,16,0.00
2012-12-24,77.0,67.5,62.0,67.0,62.8,61.0,97,86,60,0.00,40.00,9,6,16,0.00
2012-12-25,74.0,63.9,44.0,69.0,57.4,34.0,96,80,48,0.00,40.00,20,12,33,1.15
2012-12-26,43.0,39.6,37.0,35.0,32.6,30.0,87,76,69,0.00,40.00,18,10,27,0.01
2012-12-27,54.0,44.9,32.0,48.0,39.0,30.0,91,80,65,0.00,40.00,11,6,16,0.00
2012-12-28,66.0,57.2,46.0,64.0,53.8,38.0,96,88,76,0.00,40.00,17,12,26,1.17
2012-12-29,49.0,43.1,38.0,38.0,30.1,25.0,77,61,40,0.00,40.00,17,11,26,0.04
2012-12-30,51.0,41.3,32.0,37.0,30.4,25.0,84,67,43,0.00,40.00,9,5,16,0.00
2012-12-31,63.0,53.1,41.0,59.0,46.7,35.0,91,79,68,0.00,40.00,11,8,19,0.00
2013-1-1,66.0,57.7,49.0,63.0,55.2,45.0,96,91,86,0.00,40.00,16,11,25,2.21